sensor_id;sensor_type;location;lat;lon;timestamp;P1;durP1;ratioP1;P2;durP2;ratioP2
14209;SDS011;7188;56.070;12.698;2023-08-31T00:00:43;1.73;;;1.30;;
14209;SDS011;7188;56.070;12.698;2023-08-31T00:03:09;1.97;;;1.03;;
14209;SDS011;7188;56.070;12.698;2023-08-31T00:05:42;1.90;;;1.10;;
14209;SDS011;7188;56.070;12.698;2023-08-31T00:08:08;0.83;;;0.83;;
14209;SDS011;7188;56.070;12.698;2023-08-31T00:10:35;1.40;;;1.40;;
14209;SDS011;7188;56.070;12.698;2023-08-31T00:13:04;1.50;;;1.40;;
14209;SDS011;7188;56.070;12.698;2023-08-31T00:15:31;1.10;;;1.10;;
14209;SDS011;7188;56.070;12.698;2023-08-31T00:18:00;2.27;;;1.63;;
14209;SDS011;7188;56.070;12.698;2023-08-31T00:20:25;0.97;;;0.97;;
14209;SDS011;7188;56.070;12.698;2023-08-31T00:22:51;2.67;;;1.10;;
14209;SDS011;7188;56.070;12.698;2023-08-31T00:25:17;1.87;;;1.73;;
14209;SDS011;7188;56.070;12.698;2023-08-31T00:27:43;1.23;;;1.13;;
14209;SDS011;7188;56.070;12.698;2023-08-31T00:30:12;2.67;;;1.27;;
14209;SDS011;7188;56.070;12.698;2023-08-31T00:32:39;1.57;;;0.80;;
14209;SDS011;7188;56.070;12.698;2023-08-31T00:35:07;1.43;;;1.33;;
14209;SDS011;7188;56.070;12.698;2023-08-31T00:37:33;1.73;;;1.30;;
14209;SDS011;7188;56.070;12.698;2023-08-31T00:40:00;1.57;;;1.43;;
14209;SDS011;7188;56.070;12.698;2023-08-31T00:42:32;2.13;;;1.83;;
14209;SDS011;7188;56.070;12.698;2023-08-31T00:44:58;1.67;;;1.33;;
14209;SDS011;7188;56.070;12.698;2023-08-31T00:47:24;2.33;;;1.13;;
14209;SDS011;7188;56.070;12.698;2023-08-31T00:49:50;2.70;;;1.30;;
14209;SDS011;7188;56.070;12.698;2023-08-31T00:52:15;1.13;;;1.03;;
14209;SDS011;7188;56.070;12.698;2023-08-31T00:54:44;1.80;;;1.70;;
14209;SDS011;7188;56.070;12.698;2023-08-31T00:57:10;1.63;;;1.53;;
14209;SDS011;7188;56.070;12.698;2023-08-31T00:59:36;2.57;;;1.20;;
14209;SDS011;7188;56.070;12.698;2023-08-31T01:02:15;2.53;;;1.67;;
14209;SDS011;7188;56.070;12.698;2023-08-31T01:07:57;1.50;;;1.40;;
14209;SDS011;7188;56.070;12.698;2023-08-31T01:10:43;1.93;;;1.40;;
14209;SDS011;7188;56.070;12.698;2023-08-31T01:13:25;2.00;;;1.40;;
14209;SDS011;7188;56.070;12.698;2023-08-31T01:15:54;1.90;;;0.90;;
14209;SDS011;7188;56.070;12.698;2023-08-31T01:18:24;1.20;;;1.10;;
14209;SDS011;7188;56.070;12.698;2023-08-31T01:21:02;1.63;;;1.53;;
14209;SDS011;7188;56.070;12.698;2023-08-31T01:23:41;1.00;;;0.90;;
14209;SDS011;7188;56.070;12.698;2023-08-31T01:26:10;1.80;;;1.10;;
14209;SDS011;7188;56.070;12.698;2023-08-31T01:28:36;1.13;;;1.03;;
14209;SDS011;7188;56.070;12.698;2023-08-31T01:31:03;1.33;;;1.03;;
14209;SDS011;7188;56.070;12.698;2023-08-31T01:33:30;1.97;;;1.77;;
14209;SDS011;7188;56.070;12.698;2023-08-31T01:35:56;2.27;;;1.67;;
14209;SDS011;7188;56.070;12.698;2023-08-31T01:38:25;1.70;;;1.60;;
14209;SDS011;7188;56.070;12.698;2023-08-31T01:41:00;1.13;;;1.10;;
14209;SDS011;7188;56.070;12.698;2023-08-31T01:43:30;2.50;;;1.30;;
14209;SDS011;7188;56.070;12.698;2023-08-31T01:45:58;1.17;;;0.90;;
14209;SDS011;7188;56.070;12.698;2023-08-31T01:48:25;1.03;;;1.00;;
14209;SDS011;7188;56.070;12.698;2023-08-31T01:50:50;1.43;;;1.10;;
14209;SDS011;7188;56.070;12.698;2023-08-31T01:53:16;1.47;;;1.10;;
14209;SDS011;7188;56.070;12.698;2023-08-31T01:55:41;1.33;;;1.07;;
14209;SDS011;7188;56.070;12.698;2023-08-31T01:58:07;3.87;;;1.47;;
14209;SDS011;7188;56.070;12.698;2023-08-31T02:00:32;5.30;;;1.50;;
14209;SDS011;7188;56.070;12.698;2023-08-31T02:03:00;2.53;;;1.13;;
14209;SDS011;7188;56.070;12.698;2023-08-31T02:05:25;1.10;;;1.10;;
14209;SDS011;7188;56.070;12.698;2023-08-31T02:07:51;1.00;;;1.00;;
14209;SDS011;7188;56.070;12.698;2023-08-31T02:10:17;3.23;;;1.17;;
14209;SDS011;7188;56.070;12.698;2023-08-31T02:12:43;2.03;;;1.17;;
14209;SDS011;7188;56.070;12.698;2023-08-31T02:15:09;1.37;;;1.10;;
14209;SDS011;7188;56.070;12.698;2023-08-31T02:17:35;1.90;;;1.10;;
14209;SDS011;7188;56.070;12.698;2023-08-31T02:20:00;1.43;;;1.33;;
14209;SDS011;7188;56.070;12.698;2023-08-31T02:22:29;1.23;;;1.13;;
14209;SDS011;7188;56.070;12.698;2023-08-31T02:24:56;2.00;;;1.17;;
14209;SDS011;7188;56.070;12.698;2023-08-31T02:27:22;2.20;;;1.20;;
14209;SDS011;7188;56.070;12.698;2023-08-31T02:29:47;1.20;;;1.20;;
14209;SDS011;7188;56.070;12.698;2023-08-31T02:32:13;1.30;;;1.20;;
14209;SDS011;7188;56.070;12.698;2023-08-31T02:34:38;1.10;;;1.00;;
14209;SDS011;7188;56.070;12.698;2023-08-31T02:37:04;5.13;;;1.00;;
14209;SDS011;7188;56.070;12.698;2023-08-31T02:39:30;2.40;;;1.20;;
14209;SDS011;7188;56.070;12.698;2023-08-31T02:41:55;1.20;;;1.10;;
14209;SDS011;7188;56.070;12.698;2023-08-31T02:44:21;2.13;;;1.13;;
14209;SDS011;7188;56.070;12.698;2023-08-31T02:46:46;1.07;;;0.87;;
14209;SDS011;7188;56.070;12.698;2023-08-31T02:49:12;1.37;;;1.27;;
14209;SDS011;7188;56.070;12.698;2023-08-31T02:51:38;1.03;;;1.03;;
14209;SDS011;7188;56.070;12.698;2023-08-31T02:54:04;1.33;;;1.30;;
14209;SDS011;7188;56.070;12.698;2023-08-31T02:56:29;1.57;;;1.47;;
14209;SDS011;7188;56.070;12.698;2023-08-31T02:58:55;1.60;;;1.50;;
14209;SDS011;7188;56.070;12.698;2023-08-31T03:01:21;2.00;;;1.73;;
14209;SDS011;7188;56.070;12.698;2023-08-31T03:03:48;1.67;;;1.57;;
14209;SDS011;7188;56.070;12.698;2023-08-31T03:06:14;3.47;;;1.40;;
14209;SDS011;7188;56.070;12.698;2023-08-31T03:08:40;3.50;;;1.80;;
14209;SDS011;7188;56.070;12.698;2023-08-31T03:11:07;1.63;;;1.53;;
14209;SDS011;7188;56.070;12.698;2023-08-31T03:13:33;4.10;;;1.67;;
14209;SDS011;7188;56.070;12.698;2023-08-31T03:15:59;2.07;;;1.97;;
14209;SDS011;7188;56.070;12.698;2023-08-31T03:18:26;1.50;;;1.40;;
14209;SDS011;7188;56.070;12.698;2023-08-31T03:20:52;1.50;;;1.40;;
14209;SDS011;7188;56.070;12.698;2023-08-31T03:23:19;2.00;;;1.83;;
14209;SDS011;7188;56.070;12.698;2023-08-31T03:25:45;1.60;;;1.50;;
14209;SDS011;7188;56.070;12.698;2023-08-31T03:28:10;1.50;;;1.40;;
14209;SDS011;7188;56.070;12.698;2023-08-31T03:30:36;2.00;;;1.90;;
14209;SDS011;7188;56.070;12.698;2023-08-31T03:33:01;2.57;;;1.30;;
14209;SDS011;7188;56.070;12.698;2023-08-31T03:35:36;2.37;;;2.03;;
14209;SDS011;7188;56.070;12.698;2023-08-31T03:38:02;2.90;;;2.70;;
14209;SDS011;7188;56.070;12.698;2023-08-31T03:40:28;4.23;;;3.27;;
14209;SDS011;7188;56.070;12.698;2023-08-31T03:42:54;4.30;;;2.23;;
14209;SDS011;7188;56.070;12.698;2023-08-31T03:45:19;3.47;;;2.47;;
14209;SDS011;7188;56.070;12.698;2023-08-31T03:47:45;2.00;;;1.90;;
14209;SDS011;7188;56.070;12.698;2023-08-31T03:50:11;2.10;;;2.00;;
14209;SDS011;7188;56.070;12.698;2023-08-31T03:52:37;3.17;;;2.97;;
14209;SDS011;7188;56.070;12.698;2023-08-31T03:55:02;2.80;;;2.23;;
14209;SDS011;7188;56.070;12.698;2023-08-31T03:57:28;2.60;;;2.40;;
14209;SDS011;7188;56.070;12.698;2023-08-31T03:59:54;2.70;;;2.50;;
14209;SDS011;7188;56.070;12.698;2023-08-31T04:02:19;3.30;;;2.73;;
14209;SDS011;7188;56.070;12.698;2023-08-31T04:04:45;3.67;;;2.80;;
14209;SDS011;7188;56.070;12.698;2023-08-31T04:07:10;3.77;;;3.07;;
14209;SDS011;7188;56.070;12.698;2023-08-31T04:09:36;3.80;;;3.50;;
14209;SDS011;7188;56.070;12.698;2023-08-31T04:12:02;4.07;;;3.50;;
14209;SDS011;7188;56.070;12.698;2023-08-31T04:14:27;4.03;;;3.70;;
14209;SDS011;7188;56.070;12.698;2023-08-31T04:16:56;4.00;;;3.30;;
14209;SDS011;7188;56.070;12.698;2023-08-31T04:19:22;5.73;;;3.80;;
14209;SDS011;7188;56.070;12.698;2023-08-31T04:21:47;4.53;;;4.13;;
14209;SDS011;7188;56.070;12.698;2023-08-31T04:24:13;4.70;;;4.37;;
14209;SDS011;7188;56.070;12.698;2023-08-31T04:26:39;3.70;;;3.40;;
14209;SDS011;7188;56.070;12.698;2023-08-31T04:29:05;5.17;;;4.50;;
14209;SDS011;7188;56.070;12.698;2023-08-31T04:31:31;5.77;;;5.33;;
14209;SDS011;7188;56.070;12.698;2023-08-31T04:33:57;5.37;;;4.47;;
14209;SDS011;7188;56.070;12.698;2023-08-31T04:36:23;4.27;;;3.97;;
14209;SDS011;7188;56.070;12.698;2023-08-31T04:38:50;3.73;;;3.53;;
14209;SDS011;7188;56.070;12.698;2023-08-31T04:41:16;4.37;;;3.57;;
14209;SDS011;7188;56.070;12.698;2023-08-31T04:43:43;4.73;;;4.23;;
14209;SDS011;7188;56.070;12.698;2023-08-31T04:46:08;5.77;;;4.53;;
14209;SDS011;7188;56.070;12.698;2023-08-31T04:48:34;4.93;;;4.20;;
14209;SDS011;7188;56.070;12.698;2023-08-31T04:51:01;4.23;;;3.83;;
14209;SDS011;7188;56.070;12.698;2023-08-31T04:53:28;3.30;;;3.00;;
14209;SDS011;7188;56.070;12.698;2023-08-31T04:55:55;3.40;;;3.10;;
14209;SDS011;7188;56.070;12.698;2023-08-31T04:58:20;3.73;;;3.50;;
14209;SDS011;7188;56.070;12.698;2023-08-31T05:00:46;4.97;;;4.67;;
14209;SDS011;7188;56.070;12.698;2023-08-31T05:03:12;4.00;;;3.70;;
14209;SDS011;7188;56.070;12.698;2023-08-31T05:05:38;3.27;;;3.07;;
14209;SDS011;7188;56.070;12.698;2023-08-31T05:08:04;3.47;;;3.17;;
14209;SDS011;7188;56.070;12.698;2023-08-31T05:10:30;4.73;;;3.53;;
14209;SDS011;7188;56.070;12.698;2023-08-31T05:12:55;6.23;;;3.80;;
14209;SDS011;7188;56.070;12.698;2023-08-31T05:15:21;4.37;;;3.83;;
14209;SDS011;7188;56.070;12.698;2023-08-31T05:17:48;5.53;;;3.77;;
14209;SDS011;7188;56.070;12.698;2023-08-31T05:20:13;4.93;;;4.53;;
14209;SDS011;7188;56.070;12.698;2023-08-31T05:22:39;6.93;;;5.53;;
14209;SDS011;7188;56.070;12.698;2023-08-31T05:25:05;4.87;;;4.17;;
14209;SDS011;7188;56.070;12.698;2023-08-31T05:27:30;4.23;;;3.90;;
14209;SDS011;7188;56.070;12.698;2023-08-31T05:29:56;5.77;;;3.63;;
14209;SDS011;7188;56.070;12.698;2023-08-31T05:32:22;5.07;;;4.30;;
14209;SDS011;7188;56.070;12.698;2023-08-31T05:34:47;4.83;;;4.33;;
14209;SDS011;7188;56.070;12.698;2023-08-31T05:37:13;4.50;;;4.10;;
14209;SDS011;7188;56.070;12.698;2023-08-31T05:39:39;5.63;;;4.77;;
14209;SDS011;7188;56.070;12.698;2023-08-31T05:42:05;9.53;;;4.80;;
14209;SDS011;7188;56.070;12.698;2023-08-31T05:44:30;6.83;;;4.63;;
14209;SDS011;7188;56.070;12.698;2023-08-31T05:46:56;4.80;;;4.33;;
14209;SDS011;7188;56.070;12.698;2023-08-31T05:49:22;3.60;;;3.30;;
14209;SDS011;7188;56.070;12.698;2023-08-31T05:51:48;4.13;;;3.70;;
14209;SDS011;7188;56.070;12.698;2023-08-31T05:54:14;3.43;;;3.13;;
14209;SDS011;7188;56.070;12.698;2023-08-31T05:56:39;3.50;;;3.17;;
14209;SDS011;7188;56.070;12.698;2023-08-31T05:59:08;2.70;;;2.50;;
14209;SDS011;7188;56.070;12.698;2023-08-31T06:01:37;3.83;;;2.97;;
14209;SDS011;7188;56.070;12.698;2023-08-31T06:04:02;1.97;;;1.87;;
14209;SDS011;7188;56.070;12.698;2023-08-31T06:06:28;3.10;;;2.07;;
14209;SDS011;7188;56.070;12.698;2023-08-31T06:08:54;1.87;;;1.73;;
14209;SDS011;7188;56.070;12.698;2023-08-31T06:11:21;4.40;;;1.93;;
14209;SDS011;7188;56.070;12.698;2023-08-31T06:13:47;4.67;;;2.00;;
14209;SDS011;7188;56.070;12.698;2023-08-31T06:16:12;3.20;;;2.67;;
14209;SDS011;7188;56.070;12.698;2023-08-31T06:18:38;2.43;;;2.23;;
14209;SDS011;7188;56.070;12.698;2023-08-31T06:21:04;2.47;;;1.70;;
14209;SDS011;7188;56.070;12.698;2023-08-31T06:23:29;1.97;;;1.83;;
14209;SDS011;7188;56.070;12.698;2023-08-31T06:25:55;3.07;;;2.13;;
14209;SDS011;7188;56.070;12.698;2023-08-31T06:28:21;1.63;;;1.53;;
14209;SDS011;7188;56.070;12.698;2023-08-31T06:30:46;2.17;;;1.40;;
14209;SDS011;7188;56.070;12.698;2023-08-31T06:33:13;4.30;;;1.80;;
14209;SDS011;7188;56.070;12.698;2023-08-31T06:35:44;2.97;;;1.80;;
14209;SDS011;7188;56.070;12.698;2023-08-31T06:38:11;1.80;;;1.70;;
14209;SDS011;7188;56.070;12.698;2023-08-31T06:40:37;2.80;;;1.33;;
14209;SDS011;7188;56.070;12.698;2023-08-31T06:43:21;2.30;;;1.30;;
14209;SDS011;7188;56.070;12.698;2023-08-31T06:45:47;2.07;;;1.00;;
14209;SDS011;7188;56.070;12.698;2023-08-31T06:48:15;0.90;;;0.90;;
14209;SDS011;7188;56.070;12.698;2023-08-31T06:50:41;3.07;;;1.10;;
14209;SDS011;7188;56.070;12.698;2023-08-31T06:53:06;1.00;;;0.60;;
14209;SDS011;7188;56.070;12.698;2023-08-31T06:55:32;2.30;;;1.33;;
14209;SDS011;7188;56.070;12.698;2023-08-31T06:57:58;1.00;;;0.80;;
14209;SDS011;7188;56.070;12.698;2023-08-31T07:00:24;1.30;;;0.80;;
14209;SDS011;7188;56.070;12.698;2023-08-31T07:02:50;2.03;;;0.93;;
14209;SDS011;7188;56.070;12.698;2023-08-31T07:05:16;2.97;;;1.03;;
14209;SDS011;7188;56.070;12.698;2023-08-31T07:07:41;1.53;;;1.10;;
14209;SDS011;7188;56.070;12.698;2023-08-31T07:10:07;2.67;;;0.90;;
14209;SDS011;7188;56.070;12.698;2023-08-31T07:12:33;2.17;;;0.83;;
14209;SDS011;7188;56.070;12.698;2023-08-31T07:14:58;1.03;;;0.90;;
14209;SDS011;7188;56.070;12.698;2023-08-31T07:17:24;1.17;;;0.80;;
14209;SDS011;7188;56.070;12.698;2023-08-31T07:19:49;1.20;;;0.70;;
14209;SDS011;7188;56.070;12.698;2023-08-31T07:22:15;2.30;;;0.83;;
14209;SDS011;7188;56.070;12.698;2023-08-31T07:24:41;2.57;;;0.70;;
14209;SDS011;7188;56.070;12.698;2023-08-31T07:27:06;4.63;;;1.07;;
14209;SDS011;7188;56.070;12.698;2023-08-31T07:29:32;1.92;;;1.05;;
14209;SDS011;7188;56.070;12.698;2023-08-31T07:31:58;1.37;;;0.70;;
14209;SDS011;7188;56.070;12.698;2023-08-31T07:34:23;1.83;;;0.60;;
14209;SDS011;7188;56.070;12.698;2023-08-31T07:36:49;3.87;;;0.97;;
14209;SDS011;7188;56.070;12.698;2023-08-31T07:39:15;0.60;;;0.60;;
14209;SDS011;7188;56.070;12.698;2023-08-31T07:41:42;1.93;;;0.60;;
14209;SDS011;7188;56.070;12.698;2023-08-31T07:44:08;2.25;;;0.52;;
14209;SDS011;7188;56.070;12.698;2023-08-31T07:46:34;1.23;;;0.65;;
14209;SDS011;7188;56.070;12.698;2023-08-31T07:48:59;1.00;;;0.60;;
14209;SDS011;7188;56.070;12.698;2023-08-31T07:51:25;1.52;;;0.75;;
14209;SDS011;7188;56.070;12.698;2023-08-31T07:53:50;0.90;;;0.90;;
14209;SDS011;7188;56.070;12.698;2023-08-31T07:56:16;0.70;;;0.70;;
14209;SDS011;7188;56.070;12.698;2023-08-31T07:58:42;1.67;;;0.80;;
14209;SDS011;7188;56.070;12.698;2023-08-31T08:01:07;0.97;;;0.93;;
14209;SDS011;7188;56.070;12.698;2023-08-31T08:03:33;3.08;;;1.10;;
14209;SDS011;7188;56.070;12.698;2023-08-31T08:05:59;3.70;;;1.20;;
14209;SDS011;7188;56.070;12.698;2023-08-31T08:08:24;2.00;;;1.77;;
14209;SDS011;7188;56.070;12.698;2023-08-31T08:10:53;2.42;;;1.88;;
14209;SDS011;7188;56.070;12.698;2023-08-31T08:13:19;2.60;;;2.30;;
14209;SDS011;7188;56.070;12.698;2023-08-31T08:15:45;2.53;;;2.35;;
14209;SDS011;7188;56.070;12.698;2023-08-31T08:18:11;3.25;;;1.65;;
14209;SDS011;7188;56.070;12.698;2023-08-31T08:20:37;3.17;;;1.97;;
14209;SDS011;7188;56.070;12.698;2023-08-31T08:23:05;2.30;;;2.10;;
14209;SDS011;7188;56.070;12.698;2023-08-31T08:25:31;4.00;;;2.30;;
14209;SDS011;7188;56.070;12.698;2023-08-31T08:27:56;3.17;;;2.57;;
14209;SDS011;7188;56.070;12.698;2023-08-31T08:30:22;2.80;;;1.67;;
14209;SDS011;7188;56.070;12.698;2023-08-31T08:32:47;5.73;;;2.50;;
14209;SDS011;7188;56.070;12.698;2023-08-31T08:35:13;2.55;;;2.35;;
14209;SDS011;7188;56.070;12.698;2023-08-31T08:37:39;4.00;;;2.78;;
14209;SDS011;7188;56.070;12.698;2023-08-31T08:40:05;2.97;;;2.38;;
14209;SDS011;7188;56.070;12.698;2023-08-31T08:42:31;5.43;;;3.28;;
14209;SDS011;7188;56.070;12.698;2023-08-31T08:44:58;3.00;;;2.80;;
14209;SDS011;7188;56.070;12.698;2023-08-31T08:47:26;1.90;;;1.80;;
14209;SDS011;7188;56.070;12.698;2023-08-31T08:49:53;2.85;;;1.80;;
14209;SDS011;7188;56.070;12.698;2023-08-31T08:52:19;2.95;;;1.52;;
14209;SDS011;7188;56.070;12.698;2023-08-31T08:54:45;2.28;;;1.90;;
14209;SDS011;7188;56.070;12.698;2023-08-31T08:57:12;3.42;;;2.33;;
14209;SDS011;7188;56.070;12.698;2023-08-31T08:59:38;1.90;;;1.65;;
14209;SDS011;7188;56.070;12.698;2023-08-31T09:02:05;2.70;;;1.77;;
14209;SDS011;7188;56.070;12.698;2023-08-31T09:04:35;9.13;;;1.75;;
14209;SDS011;7188;56.070;12.698;2023-08-31T09:07:00;1.90;;;1.63;;
14209;SDS011;7188;56.070;12.698;2023-08-31T09:09:26;5.45;;;2.60;;
14209;SDS011;7188;56.070;12.698;2023-08-31T09:11:52;3.58;;;3.38;;
14209;SDS011;7188;56.070;12.698;2023-08-31T09:14:18;6.47;;;2.88;;
14209;SDS011;7188;56.070;12.698;2023-08-31T09:16:45;4.70;;;3.70;;
14209;SDS011;7188;56.070;12.698;2023-08-31T09:19:24;5.32;;;3.67;;
14209;SDS011;7188;56.070;12.698;2023-08-31T09:21:55;6.30;;;4.13;;
14209;SDS011;7188;56.070;12.698;2023-08-31T09:24:21;7.25;;;3.03;;
14209;SDS011;7188;56.070;12.698;2023-08-31T09:26:53;4.35;;;2.70;;
14209;SDS011;7188;56.070;12.698;2023-08-31T09:29:20;2.70;;;2.47;;
14209;SDS011;7188;56.070;12.698;2023-08-31T09:31:45;4.40;;;3.00;;
14209;SDS011;7188;56.070;12.698;2023-08-31T09:34:12;5.85;;;2.22;;
14209;SDS011;7188;56.070;12.698;2023-08-31T09:36:39;2.42;;;1.75;;
14209;SDS011;7188;56.070;12.698;2023-08-31T09:39:05;4.70;;;2.60;;
14209;SDS011;7188;56.070;12.698;2023-08-31T09:41:31;4.97;;;3.03;;
14209;SDS011;7188;56.070;12.698;2023-08-31T09:44:15;10.27;;;2.53;;
14209;SDS011;7188;56.070;12.698;2023-08-31T09:46:42;8.52;;;1.80;;
14209;SDS011;7188;56.070;12.698;2023-08-31T09:49:09;2.00;;;1.65;;
14209;SDS011;7188;56.070;12.698;2023-08-31T09:51:38;2.90;;;1.55;;
14209;SDS011;7188;56.070;12.698;2023-08-31T09:54:08;2.22;;;0.90;;
14209;SDS011;7188;56.070;12.698;2023-08-31T09:56:37;2.67;;;0.73;;
14209;SDS011;7188;56.070;12.698;2023-08-31T09:59:06;1.15;;;1.10;;
14209;SDS011;7188;56.070;12.698;2023-08-31T10:01:32;2.67;;;1.00;;
14209;SDS011;7188;56.070;12.698;2023-08-31T10:03:58;4.50;;;1.10;;
14209;SDS011;7188;56.070;12.698;2023-08-31T10:06:25;2.25;;;0.63;;
14209;SDS011;7188;56.070;12.698;2023-08-31T10:08:52;0.50;;;0.50;;
14209;SDS011;7188;56.070;12.698;2023-08-31T10:11:18;0.30;;;0.30;;
14209;SDS011;7188;56.070;12.698;2023-08-31T10:13:47;0.30;;;0.30;;
14209;SDS011;7188;56.070;12.698;2023-08-31T10:16:14;0.30;;;0.30;;
14209;SDS011;7188;56.070;12.698;2023-08-31T10:18:40;0.25;;;0.20;;
14209;SDS011;7188;56.070;12.698;2023-08-31T10:21:07;0.30;;;0.30;;
14209;SDS011;7188;56.070;12.698;2023-08-31T10:23:33;0.77;;;0.30;;
14209;SDS011;7188;56.070;12.698;2023-08-31T10:26:00;1.42;;;0.50;;
14209;SDS011;7188;56.070;12.698;2023-08-31T10:28:28;0.30;;;0.30;;
14209;SDS011;7188;56.070;12.698;2023-08-31T10:33:41;0.45;;;0.45;;
14209;SDS011;7188;56.070;12.698;2023-08-31T10:36:12;1.20;;;0.50;;
14209;SDS011;7188;56.070;12.698;2023-08-31T10:41:22;1.20;;;0.57;;
14209;SDS011;7188;56.070;12.698;2023-08-31T10:43:56;1.00;;;0.40;;
14209;SDS011;7188;56.070;12.698;2023-08-31T10:46:34;0.63;;;0.43;;
14209;SDS011;7188;56.070;12.698;2023-08-31T10:51:35;2.73;;;0.40;;
14209;SDS011;7188;56.070;12.698;2023-08-31T10:54:20;2.25;;;0.60;;
14209;SDS011;7188;56.070;12.698;2023-08-31T10:59:43;1.23;;;0.50;;
14209;SDS011;7188;56.070;12.698;2023-08-31T11:05:10;2.05;;;0.40;;
14209;SDS011;7188;56.070;12.698;2023-08-31T11:07:40;0.57;;;0.30;;
14209;SDS011;7188;56.070;12.698;2023-08-31T11:12:33;0.43;;;0.38;;
14209;SDS011;7188;56.070;12.698;2023-08-31T11:14:58;0.40;;;0.40;;
14209;SDS011;7188;56.070;12.698;2023-08-31T11:17:24;1.10;;;0.43;;
14209;SDS011;7188;56.070;12.698;2023-08-31T11:19:50;0.70;;;0.50;;
14209;SDS011;7188;56.070;12.698;2023-08-31T11:22:15;0.50;;;0.43;;
14209;SDS011;7188;56.070;12.698;2023-08-31T11:24:41;0.43;;;0.40;;
14209;SDS011;7188;56.070;12.698;2023-08-31T11:27:07;1.63;;;0.50;;
14209;SDS011;7188;56.070;12.698;2023-08-31T11:29:42;1.13;;;0.50;;
14209;SDS011;7188;56.070;12.698;2023-08-31T11:32:09;1.00;;;0.73;;
14209;SDS011;7188;56.070;12.698;2023-08-31T11:34:34;1.15;;;0.50;;
14209;SDS011;7188;56.070;12.698;2023-08-31T11:37:01;0.65;;;0.50;;
14209;SDS011;7188;56.070;12.698;2023-08-31T11:39:28;1.00;;;0.60;;
14209;SDS011;7188;56.070;12.698;2023-08-31T11:41:54;1.95;;;0.93;;
14209;SDS011;7188;56.070;12.698;2023-08-31T11:44:20;0.53;;;0.50;;
14209;SDS011;7188;56.070;12.698;2023-08-31T11:46:46;1.70;;;0.50;;
14209;SDS011;7188;56.070;12.698;2023-08-31T11:49:18;0.60;;;0.60;;
14209;SDS011;7188;56.070;12.698;2023-08-31T11:51:44;0.80;;;0.60;;
14209;SDS011;7188;56.070;12.698;2023-08-31T11:54:11;0.60;;;0.40;;
14209;SDS011;7188;56.070;12.698;2023-08-31T11:56:43;0.93;;;0.63;;
14209;SDS011;7188;56.070;12.698;2023-08-31T11:59:15;3.00;;;0.70;;
14209;SDS011;7188;56.070;12.698;2023-08-31T12:01:42;0.60;;;0.60;;
14209;SDS011;7188;56.070;12.698;2023-08-31T12:04:19;0.77;;;0.67;;
14209;SDS011;7188;56.070;12.698;2023-08-31T12:06:48;3.30;;;0.87;;
14209;SDS011;7188;56.070;12.698;2023-08-31T12:09:15;0.73;;;0.57;;
14209;SDS011;7188;56.070;12.698;2023-08-31T12:11:41;2.03;;;0.70;;
14209;SDS011;7188;56.070;12.698;2023-08-31T12:14:20;0.80;;;0.80;;
14209;SDS011;7188;56.070;12.698;2023-08-31T12:16:47;2.37;;;0.70;;
14209;SDS011;7188;56.070;12.698;2023-08-31T12:19:13;1.33;;;0.60;;
14209;SDS011;7188;56.070;12.698;2023-08-31T12:21:39;2.57;;;0.80;;
14209;SDS011;7188;56.070;12.698;2023-08-31T12:24:07;2.70;;;0.93;;
14209;SDS011;7188;56.070;12.698;2023-08-31T12:26:32;3.73;;;1.07;;
14209;SDS011;7188;56.070;12.698;2023-08-31T12:28:59;1.27;;;0.83;;
14209;SDS011;7188;56.070;12.698;2023-08-31T12:31:24;1.10;;;1.00;;
14209;SDS011;7188;56.070;12.698;2023-08-31T12:33:50;2.43;;;0.80;;
14209;SDS011;7188;56.070;12.698;2023-08-31T12:36:16;1.73;;;1.10;;
14209;SDS011;7188;56.070;12.698;2023-08-31T12:38:41;2.93;;;1.00;;
14209;SDS011;7188;56.070;12.698;2023-08-31T12:41:07;3.10;;;1.10;;
14209;SDS011;7188;56.070;12.698;2023-08-31T12:43:33;1.37;;;1.23;;
14209;SDS011;7188;56.070;12.698;2023-08-31T12:45:59;1.73;;;1.07;;
14209;SDS011;7188;56.070;12.698;2023-08-31T12:48:25;1.40;;;0.80;;
14209;SDS011;7188;56.070;12.698;2023-08-31T12:50:51;3.13;;;1.20;;
14209;SDS011;7188;56.070;12.698;2023-08-31T12:53:18;9.07;;;3.63;;
14209;SDS011;7188;56.070;12.698;2023-08-31T12:55:45;1.97;;;1.00;;
14209;SDS011;7188;56.070;12.698;2023-08-31T12:58:11;1.63;;;1.23;;
14209;SDS011;7188;56.070;12.698;2023-08-31T13:00:37;1.00;;;0.77;;
14209;SDS011;7188;56.070;12.698;2023-08-31T13:03:02;3.13;;;0.80;;
14209;SDS011;7188;56.070;12.698;2023-08-31T13:05:28;4.53;;;1.33;;
14209;SDS011;7188;56.070;12.698;2023-08-31T13:07:54;1.10;;;0.90;;
14209;SDS011;7188;56.070;12.698;2023-08-31T13:10:20;2.43;;;0.90;;
14209;SDS011;7188;56.070;12.698;2023-08-31T13:12:46;2.93;;;1.10;;
14209;SDS011;7188;56.070;12.698;2023-08-31T13:15:11;3.00;;;0.95;;
14209;SDS011;7188;56.070;12.698;2023-08-31T13:17:38;1.30;;;1.00;;
14209;SDS011;7188;56.070;12.698;2023-08-31T13:20:05;1.57;;;0.93;;
14209;SDS011;7188;56.070;12.698;2023-08-31T13:22:32;1.97;;;0.90;;
14209;SDS011;7188;56.070;12.698;2023-08-31T13:24:58;2.80;;;1.00;;
14209;SDS011;7188;56.070;12.698;2023-08-31T13:27:24;1.73;;;0.97;;
14209;SDS011;7188;56.070;12.698;2023-08-31T13:29:49;3.87;;;1.33;;
14209;SDS011;7188;56.070;12.698;2023-08-31T13:32:16;0.73;;;0.73;;
14209;SDS011;7188;56.070;12.698;2023-08-31T13:34:42;0.93;;;0.93;;
14209;SDS011;7188;56.070;12.698;2023-08-31T13:37:07;2.77;;;1.10;;
14209;SDS011;7188;56.070;12.698;2023-08-31T13:39:34;1.00;;;1.00;;
14209;SDS011;7188;56.070;12.698;2023-08-31T13:42:05;1.40;;;0.87;;
14209;SDS011;7188;56.070;12.698;2023-08-31T13:44:31;0.80;;;0.77;;
14209;SDS011;7188;56.070;12.698;2023-08-31T13:46:57;1.70;;;0.90;;
14209;SDS011;7188;56.070;12.698;2023-08-31T13:49:23;1.60;;;1.07;;
14209;SDS011;7188;56.070;12.698;2023-08-31T13:51:49;2.27;;;0.93;;
14209;SDS011;7188;56.070;12.698;2023-08-31T13:54:15;1.00;;;1.00;;
14209;SDS011;7188;56.070;12.698;2023-08-31T13:56:41;1.23;;;1.00;;
14209;SDS011;7188;56.070;12.698;2023-08-31T13:59:07;1.50;;;0.90;;
14209;SDS011;7188;56.070;12.698;2023-08-31T14:01:33;2.83;;;1.13;;
14209;SDS011;7188;56.070;12.698;2023-08-31T14:03:59;1.83;;;0.90;;
14209;SDS011;7188;56.070;12.698;2023-08-31T14:06:24;1.33;;;0.90;;
14209;SDS011;7188;56.070;12.698;2023-08-31T14:08:50;0.70;;;0.70;;
14209;SDS011;7188;56.070;12.698;2023-08-31T14:11:15;0.83;;;0.77;;
14209;SDS011;7188;56.070;12.698;2023-08-31T14:13:43;0.63;;;0.63;;
14209;SDS011;7188;56.070;12.698;2023-08-31T14:16:09;0.80;;;0.80;;
14209;SDS011;7188;56.070;12.698;2023-08-31T14:18:34;0.63;;;0.53;;
14209;SDS011;7188;56.070;12.698;2023-08-31T14:21:00;0.70;;;0.70;;
14209;SDS011;7188;56.070;12.698;2023-08-31T14:23:26;0.83;;;0.83;;
14209;SDS011;7188;56.070;12.698;2023-08-31T14:25:52;1.70;;;1.30;;
14209;SDS011;7188;56.070;12.698;2023-08-31T14:28:18;1.20;;;1.20;;
14209;SDS011;7188;56.070;12.698;2023-08-31T14:30:43;1.33;;;1.20;;
14209;SDS011;7188;56.070;12.698;2023-08-31T14:33:09;1.27;;;1.00;;
14209;SDS011;7188;56.070;12.698;2023-08-31T14:35:37;1.87;;;1.30;;
14209;SDS011;7188;56.070;12.698;2023-08-31T14:38:03;1.00;;;0.90;;
14209;SDS011;7188;56.070;12.698;2023-08-31T14:40:30;0.93;;;0.80;;
14209;SDS011;7188;56.070;12.698;2023-08-31T14:42:57;1.47;;;0.80;;
14209;SDS011;7188;56.070;12.698;2023-08-31T14:45:23;1.37;;;1.10;;
14209;SDS011;7188;56.070;12.698;2023-08-31T14:47:49;1.00;;;0.90;;
14209;SDS011;7188;56.070;12.698;2023-08-31T14:50:14;1.10;;;1.10;;
14209;SDS011;7188;56.070;12.698;2023-08-31T14:52:40;0.97;;;0.87;;
14209;SDS011;7188;56.070;12.698;2023-08-31T14:55:14;1.00;;;1.00;;
14209;SDS011;7188;56.070;12.698;2023-08-31T14:57:40;0.87;;;0.83;;
14209;SDS011;7188;56.070;12.698;2023-08-31T15:00:07;0.90;;;0.90;;
14209;SDS011;7188;56.070;12.698;2023-08-31T15:02:34;0.93;;;0.80;;
14209;SDS011;7188;56.070;12.698;2023-08-31T15:04:59;1.33;;;1.23;;